createdAt,value
2019-05-15T00:00:40.202Z,18.62
2019-05-15T00:03:09.215Z,18.98
2019-05-15T00:05:39.140Z,23.25
2019-05-15T00:08:09.474Z,15.32
2019-05-15T00:10:39.399Z,16.48
2019-05-15T00:13:09.503Z,12.98
2019-05-15T00:15:40.049Z,13.53
2019-05-15T00:18:09.525Z,15.83
2019-05-15T00:20:39.508Z,13.88
2019-05-15T00:23:08.796Z,10.70
2019-05-15T00:25:39.378Z,12.68
2019-05-15T00:28:09.486Z,14.15
2019-05-15T00:30:39.111Z,9.28
2019-05-15T00:33:08.893Z,12.43
2019-05-15T00:35:39.463Z,13.18
2019-05-15T00:38:09.467Z,14.25
2019-05-15T00:40:39.327Z,13.80
2019-05-15T00:43:09.066Z,21.75
2019-05-15T00:45:38.651Z,12.90
2019-05-15T00:48:08.929Z,9.50
2019-05-15T00:50:39.305Z,9.63
2019-05-15T00:53:09.144Z,13.65
2019-05-15T00:55:39.525Z,11.85
2019-05-15T00:58:08.841Z,11.22
2019-05-15T01:00:48.686Z,14.65
2019-05-15T01:03:18.216Z,10.93
2019-05-15T01:05:48.147Z,9.28
2019-05-15T01:08:18.918Z,11.28
2019-05-15T01:10:48.896Z,14.13
2019-05-15T01:13:19.039Z,12.80
2019-05-15T01:15:48.935Z,13.53
2019-05-15T01:18:18.679Z,10.35
2019-05-15T01:20:49.296Z,16.12
2019-05-15T01:23:18.766Z,15.40
2019-05-15T01:25:48.236Z,10.43
2019-05-15T01:28:18.351Z,12.80
2019-05-15T01:30:48.652Z,15.43
2019-05-15T01:33:18.917Z,14.03
2019-05-15T01:35:48.812Z,9.75
2019-05-15T01:38:18.698Z,10.13
2019-05-15T01:40:48.531Z,11.12
2019-05-15T01:43:18.759Z,11.73
2019-05-15T01:45:48.305Z,15.25
2019-05-15T01:48:18.932Z,10.45
2019-05-15T01:50:49.329Z,12.35
2019-05-15T01:53:18.718Z,12.05
2019-05-15T01:55:48.353Z,11.90
2019-05-15T01:58:18.557Z,10.90
2019-05-15T02:00:48.476Z,12.13
2019-05-15T02:03:18.353Z,17.32
2019-05-15T02:05:48.141Z,19.10
2019-05-15T02:08:19.163Z,12.35
2019-05-15T02:10:49.434Z,15.43
2019-05-15T02:13:18.815Z,11.88
2019-05-15T02:15:48.309Z,10.90
2019-05-15T02:18:19.108Z,12.78
2019-05-15T02:20:49.318Z,15.60
2019-05-15T02:23:18.895Z,11.05
2019-05-15T02:25:48.214Z,11.40
2019-05-15T02:28:18.370Z,19.73
2019-05-15T02:30:50.469Z,11.12
2019-05-15T02:33:18.875Z,11.73
2019-05-15T02:35:50.095Z,13.45
2019-05-15T02:38:19.941Z,15.85
2019-05-15T02:40:49.438Z,13.43
2019-05-15T02:43:19.156Z,15.25
2019-05-15T02:45:50.956Z,15.20
2019-05-15T02:48:19.932Z,16.65
2019-05-15T02:50:50.063Z,11.73
2019-05-15T02:53:19.480Z,15.83
2019-05-15T02:55:49.590Z,12.35
2019-05-15T02:58:21.181Z,20.85
2019-05-15T03:00:53.494Z,14.23
2019-05-15T03:03:20.557Z,22.52
2019-05-15T03:05:49.983Z,13.15
2019-05-15T03:08:19.637Z,16.73
2019-05-15T03:10:49.645Z,18.80
2019-05-15T03:13:19.072Z,16.45
2019-05-15T03:15:48.952Z,17.95
2019-05-15T03:18:19.479Z,12.63
2019-05-15T03:20:50.158Z,18.27
2019-05-15T03:23:19.968Z,18.30
2019-05-15T03:25:49.226Z,12.47
2019-05-15T03:28:19.047Z,18.10
2019-05-15T03:31:15.230Z,15.18
2019-05-15T03:33:27.442Z,21.93
2019-05-15T03:35:54.057Z,15.72
2019-05-15T03:38:19.586Z,21.25
2019-05-15T03:40:49.769Z,17.42
2019-05-15T03:43:18.919Z,19.40
2019-05-15T03:45:49.357Z,16.25
2019-05-15T03:48:19.657Z,18.02
2019-05-15T03:50:49.034Z,26.50
2019-05-15T03:53:19.212Z,14.25
2019-05-15T03:55:49.235Z,21.23
2019-05-15T03:58:21.581Z,20.62
2019-05-15T04:00:49.947Z,15.95
2019-05-15T04:03:20.146Z,30.92
2019-05-15T04:05:49.554Z,25.40
2019-05-15T04:08:20.077Z,20.77
2019-05-15T04:10:49.007Z,21.93
2019-05-15T04:13:19.607Z,16.75
2019-05-15T04:15:50.202Z,20.35
2019-05-15T04:18:20.021Z,20.60
2019-05-15T04:20:49.449Z,33.15
2019-05-15T04:23:21.311Z,18.65
2019-05-15T04:25:52.791Z,21.40
2019-05-15T04:28:22.181Z,17.95
2019-05-15T04:30:50.962Z,18.80
2019-05-15T04:33:20.029Z,21.65
2019-05-15T04:35:49.819Z,25.27
2019-05-15T04:38:19.563Z,21.75
2019-05-15T04:40:50.023Z,17.27
2019-05-15T04:43:19.521Z,23.70
2019-05-15T04:45:49.792Z,16.05
2019-05-15T04:48:19.967Z,16.67
2019-05-15T04:50:49.852Z,17.45
2019-05-15T04:53:19.354Z,19.87
2019-05-15T04:55:49.173Z,21.20
2019-05-15T04:58:20.885Z,23.35
2019-05-15T05:00:53.196Z,20.55
2019-05-15T05:03:22.411Z,21.10
2019-05-15T05:05:51.612Z,23.30
2019-05-15T05:08:21.036Z,20.55
2019-05-15T05:10:50.626Z,15.72
2019-05-15T05:13:20.105Z,20.55
2019-05-15T05:15:50.659Z,19.25
2019-05-15T05:18:19.957Z,20.90
2019-05-15T05:20:48.905Z,19.10
2019-05-15T05:23:19.265Z,18.85
2019-05-15T05:25:49.377Z,22.95
2019-05-15T05:28:19.372Z,19.42
2019-05-15T05:30:48.723Z,22.22
2019-05-15T05:33:18.589Z,20.70
2019-05-15T05:35:48.483Z,30.72
2019-05-15T05:38:19.063Z,23.52
2019-05-15T05:40:49.776Z,23.62
2019-05-15T05:43:19.841Z,30.65
2019-05-15T05:45:49.445Z,27.52
2019-05-15T05:48:19.201Z,22.73
2019-05-15T05:50:49.716Z,19.87
2019-05-15T05:53:21.189Z,24.40
2019-05-15T05:55:53.035Z,17.25
2019-05-15T05:58:20.224Z,33.63
2019-05-15T06:00:49.723Z,20.32
2019-05-15T06:03:19.746Z,17.75
2019-05-15T06:05:49.703Z,19.80
2019-05-15T06:08:19.888Z,23.22
2019-05-15T06:10:49.768Z,17.73
2019-05-15T06:13:19.371Z,23.83
2019-05-15T06:15:48.889Z,18.80
2019-05-15T06:18:19.500Z,16.90
2019-05-15T06:20:49.693Z,58.40
2019-05-15T06:23:23.237Z,85.12
2019-05-15T06:25:51.167Z,59.55
2019-05-15T06:28:20.413Z,54.13
2019-05-15T06:30:49.493Z,38.75
2019-05-15T06:33:18.964Z,42.00
2019-05-15T06:35:48.994Z,30.15
2019-05-15T06:38:19.542Z,31.85
2019-05-15T06:40:49.304Z,32.55
2019-05-15T06:43:19.359Z,28.75
2019-05-15T06:45:49.264Z,45.03
2019-05-15T06:48:18.686Z,24.80
2019-05-15T06:50:49.115Z,26.50
2019-05-15T06:53:19.347Z,35.33
2019-05-15T06:55:48.796Z,21.02
2019-05-15T06:58:19.141Z,25.45
2019-05-15T07:00:49.071Z,23.00
2019-05-15T07:03:25.350Z,19.85
2019-05-15T07:05:50.732Z,20.43
2019-05-15T07:08:19.471Z,16.42
2019-05-15T07:10:48.814Z,23.62
2019-05-15T07:13:18.466Z,30.17
2019-05-15T07:15:49.397Z,19.17
2019-05-15T07:18:19.923Z,30.27
2019-05-15T07:20:49.059Z,27.22
2019-05-15T07:23:18.819Z,17.40
2019-05-15T07:25:49.726Z,24.47
2019-05-15T07:28:18.482Z,20.02
2019-05-15T07:30:49.536Z,25.82
2019-05-15T07:33:28.090Z,23.32
2019-05-15T07:35:49.256Z,25.40
2019-05-15T07:38:18.939Z,25.23
2019-05-15T07:40:57.032Z,17.25
2019-05-15T07:43:18.465Z,18.02
2019-05-15T07:45:54.267Z,16.20
2019-05-15T07:48:18.720Z,19.70
2019-05-15T07:50:49.827Z,18.27
2019-05-15T07:53:19.795Z,16.97
2019-05-15T07:55:49.915Z,18.07
2019-05-15T07:58:21.690Z,16.50
2019-05-15T08:00:50.003Z,17.20
2019-05-15T08:03:19.019Z,14.70
2019-05-15T08:05:58.655Z,15.53
2019-05-15T08:08:18.737Z,19.37
2019-05-15T08:10:48.859Z,14.93
2019-05-15T08:13:18.767Z,24.70
2019-05-15T08:15:48.641Z,14.30
2019-05-15T08:18:18.919Z,13.10
2019-05-15T08:20:49.074Z,19.70
2019-05-15T08:23:19.246Z,20.92
2019-05-15T08:25:48.752Z,17.75
2019-05-15T08:28:19.067Z,12.78
2019-05-15T08:30:49.686Z,16.45
2019-05-15T08:33:18.958Z,25.92
2019-05-15T08:35:51.691Z,9.65
2019-05-15T08:38:19.041Z,16.60
2019-05-15T08:40:48.985Z,15.18
2019-05-15T08:43:18.833Z,7.80
2019-05-15T08:45:49.625Z,13.70
2019-05-15T08:48:18.920Z,8.88
2019-05-15T08:50:48.779Z,6.92
2019-05-15T08:53:19.424Z,6.10
2019-05-15T08:55:49.280Z,12.35
2019-05-15T08:58:20.062Z,13.18
2019-05-15T09:00:52.474Z,6.62
2019-05-15T09:03:19.321Z,15.68
2019-05-15T09:05:48.706Z,5.95
2019-05-15T09:08:19.188Z,5.72
2019-05-15T09:10:50.275Z,10.13
2019-05-15T09:13:19.401Z,12.00
2019-05-15T09:15:52.198Z,8.95
2019-05-15T09:18:21.073Z,4.10
2019-05-15T09:20:49.855Z,5.33
2019-05-15T09:23:19.508Z,9.10
2019-05-15T09:25:49.553Z,9.25
2019-05-15T09:28:19.208Z,8.85
2019-05-15T09:30:49.008Z,8.73
2019-05-15T09:33:20.054Z,10.18
2019-05-15T09:35:48.962Z,8.13
2019-05-15T09:38:18.617Z,6.00
2019-05-15T09:40:50.147Z,8.13
2019-05-15T09:43:18.365Z,8.98
2019-05-15T09:45:49.415Z,6.33
2019-05-15T09:48:19.751Z,9.68
2019-05-15T09:50:49.569Z,10.38
2019-05-15T09:53:20.366Z,13.58
2019-05-15T09:55:49.941Z,7.72
2019-05-15T09:58:20.747Z,8.10
2019-05-15T10:00:53.018Z,10.85
2019-05-15T10:03:20.650Z,6.65
2019-05-15T10:05:49.622Z,7.05
2019-05-15T10:08:21.313Z,7.78
2019-05-15T10:10:49.020Z,7.40
2019-05-15T10:13:18.699Z,8.13
2019-05-15T10:15:50.841Z,12.18
2019-05-15T10:18:19.237Z,7.70
2019-05-15T10:20:49.207Z,9.15
2019-05-15T10:23:19.651Z,9.03
2019-05-15T10:25:50.264Z,7.50
2019-05-15T10:28:19.660Z,12.70
2019-05-15T10:30:49.543Z,4.65
2019-05-15T10:33:19.703Z,8.33
2019-05-15T10:35:49.107Z,9.05
2019-05-15T10:38:19.250Z,13.15
2019-05-15T10:41:08.612Z,13.60
2019-05-15T10:43:30.015Z,7.12
2019-05-15T10:45:58.906Z,9.48
2019-05-15T10:48:29.209Z,10.88
2019-05-15T10:51:06.272Z,7.33
2019-05-15T10:53:29.854Z,8.78
2019-05-15T10:56:02.457Z,12.68
2019-05-15T10:58:30.043Z,10.43
2019-05-15T11:01:01.826Z,7.78
2019-05-15T11:03:34.597Z,11.60
2019-05-15T11:06:01.701Z,9.60
2019-05-15T11:08:30.516Z,6.42
2019-05-15T11:10:59.301Z,7.80
2019-05-15T11:13:28.792Z,5.05
2019-05-15T11:15:57.819Z,5.35
2019-05-15T11:18:30.513Z,10.48
2019-05-15T11:20:59.337Z,13.43
2019-05-15T11:23:29.293Z,11.43
2019-05-15T11:25:58.208Z,7.58
2019-05-15T11:28:31.640Z,7.53
2019-05-15T11:30:59.495Z,10.60
2019-05-15T11:33:29.323Z,10.15
2019-05-15T11:36:05.412Z,6.03
2019-05-15T11:38:29.241Z,13.60
2019-05-15T11:40:58.420Z,8.80
2019-05-15T11:43:29.192Z,7.72
2019-05-15T11:45:58.909Z,10.65
2019-05-15T11:48:29.837Z,13.80
2019-05-15T11:50:58.424Z,6.78
2019-05-15T11:53:28.405Z,6.35
2019-05-15T11:55:59.851Z,9.28
2019-05-15T11:58:29.671Z,7.72
2019-05-15T12:00:58.614Z,5.33
2019-05-15T12:03:29.067Z,17.10
2019-05-15T12:06:14.606Z,7.20
2019-05-15T12:08:29.496Z,8.45
2019-05-15T12:10:59.353Z,26.20
2019-05-15T12:13:28.538Z,12.88
2019-05-15T12:15:58.880Z,6.03
2019-05-15T12:18:28.762Z,6.80
2019-05-15T12:20:59.444Z,13.22
2019-05-15T12:23:29.320Z,6.87
2019-05-15T12:25:59.830Z,8.38
2019-05-15T12:28:29.725Z,6.17
2019-05-15T12:31:00.047Z,14.40
2019-05-15T12:33:29.245Z,9.38
2019-05-15T12:35:58.752Z,6.22
2019-05-15T12:38:28.863Z,6.87
2019-05-15T13:01:14.707Z,8.17
2019-05-15T13:03:32.956Z,10.45
2019-05-15T13:06:02.056Z,7.25
2019-05-15T13:08:32.590Z,9.30
2019-05-15T13:11:01.662Z,7.30
2019-05-15T13:13:30.666Z,5.67
2019-05-15T13:15:59.505Z,7.00
2019-05-15T13:18:28.692Z,6.83
2019-05-15T13:20:59.586Z,10.08
2019-05-15T13:23:28.634Z,6.37
2019-05-15T13:25:59.431Z,4.97
2019-05-15T13:28:29.040Z,6.62
2019-05-15T13:30:59.659Z,7.83
2019-05-15T13:33:28.631Z,9.33
2019-05-15T13:35:58.527Z,4.80
2019-05-15T13:38:28.766Z,6.25
2019-05-15T13:40:58.984Z,9.13
2019-05-15T13:43:28.958Z,11.88
2019-05-15T13:45:58.911Z,8.63
2019-05-15T13:48:29.390Z,7.03
2019-05-15T13:50:58.981Z,9.20
2019-05-15T13:53:28.126Z,9.50
2019-05-15T13:55:56.943Z,8.68
2019-05-15T13:58:28.034Z,5.50
2019-05-15T14:00:58.964Z,8.43
2019-05-15T14:03:28.446Z,4.67
2019-05-15T14:05:58.358Z,14.60
2019-05-15T14:08:28.855Z,11.60
2019-05-15T14:10:58.372Z,11.07
2019-05-15T14:13:28.735Z,4.55
2019-05-15T14:15:58.341Z,2.98
2019-05-15T14:18:28.706Z,5.45
2019-05-15T14:20:58.405Z,7.00
2019-05-15T14:23:29.586Z,3.67
2019-05-15T14:25:58.948Z,6.25
2019-05-15T14:28:28.693Z,7.62
2019-05-15T14:30:58.735Z,10.40
2019-05-15T14:33:29.165Z,10.58
2019-05-15T14:35:58.544Z,12.23
2019-05-15T14:38:29.030Z,7.40
2019-05-15T14:40:59.026Z,7.58
2019-05-15T14:43:33.614Z,11.68
2019-05-15T14:46:04.277Z,11.30
2019-05-15T14:48:38.619Z,13.93
2019-05-15T14:51:11.074Z,3.25
2019-05-15T14:53:43.722Z,4.83
2019-05-15T14:56:18.476Z,5.55
2019-05-15T14:58:52.464Z,9.00
2019-05-15T15:01:25.925Z,9.03
2019-05-15T15:03:58.092Z,3.20
2019-05-15T15:06:32.023Z,9.43
2019-05-15T15:09:04.760Z,5.90
2019-05-15T15:11:39.557Z,5.92
2019-05-15T15:14:14.662Z,4.50
2019-05-15T15:16:49.619Z,5.33
2019-05-15T15:19:20.029Z,7.08
2019-05-15T15:21:54.416Z,9.78
2019-05-15T15:24:25.446Z,4.03
2019-05-15T15:26:58.798Z,5.67
2019-05-15T15:29:32.038Z,6.85
2019-05-15T15:32:02.862Z,3.05
2019-05-15T15:34:32.816Z,7.50
2019-05-15T15:37:08.343Z,6.05
2019-05-15T15:39:41.479Z,4.83
2019-05-15T15:42:11.684Z,13.50
2019-05-15T15:44:41.707Z,8.08
2019-05-15T15:47:13.635Z,3.13
2019-05-15T15:49:43.903Z,11.88
2019-05-15T15:52:13.218Z,6.58
2019-05-15T15:54:45.064Z,11.78
2019-05-15T15:57:19.350Z,7.55
2019-05-15T15:59:51.664Z,4.60
2019-05-15T16:02:20.626Z,5.08
2019-05-15T16:04:54.023Z,11.85
2019-05-15T16:07:24.817Z,7.65
2019-05-15T16:09:58.763Z,10.93
2019-05-15T16:12:27.795Z,4.12
2019-05-15T16:15:01.016Z,8.23
2019-05-15T16:17:35.054Z,7.05
2019-05-15T16:20:05.273Z,5.20
2019-05-15T16:22:38.560Z,5.00
2019-05-15T16:25:15.599Z,9.68
2019-05-15T16:27:48.815Z,4.35
2019-05-15T16:30:19.933Z,9.45
2019-05-15T16:32:52.009Z,7.85
2019-05-15T16:35:23.897Z,11.57
2019-05-15T16:37:52.685Z,14.23
2019-05-15T16:40:25.500Z,6.37
2019-05-15T16:42:54.383Z,8.95
2019-05-15T16:45:24.126Z,7.45
2019-05-15T16:47:55.108Z,10.65
2019-05-15T16:50:24.754Z,8.20
2019-05-15T16:52:54.023Z,9.40
2019-05-15T16:55:24.542Z,4.80
2019-05-15T16:57:58.549Z,6.97
2019-05-15T17:00:31.481Z,11.45
2019-05-15T17:03:13.655Z,7.08
2019-05-15T17:05:39.038Z,8.95
2019-05-15T17:08:32.221Z,8.08
2019-05-15T17:11:07.935Z,6.37
2019-05-15T17:13:39.346Z,11.85
2019-05-15T17:16:13.725Z,11.22
2019-05-15T17:18:45.023Z,53.28
2019-05-15T17:21:14.378Z,13.35
2019-05-15T17:23:43.605Z,21.80
2019-05-15T17:26:12.601Z,14.55
2019-05-15T17:28:41.880Z,8.55
2019-05-15T17:31:11.094Z,10.48
2019-05-15T17:33:40.163Z,9.38
2019-05-15T17:36:09.189Z,6.67
2019-05-15T17:38:38.903Z,16.95
2019-05-15T17:41:09.420Z,13.38
2019-05-15T17:43:38.519Z,11.18
2019-05-15T17:46:08.959Z,9.60
2019-05-15T17:48:38.831Z,9.13
2019-05-15T17:51:09.110Z,8.33
2019-05-15T17:53:38.451Z,10.00
2019-05-15T17:56:07.376Z,11.83
2019-05-15T17:58:38.139Z,8.35
2019-05-15T18:01:08.783Z,14.35
2019-05-15T18:03:39.242Z,6.45
2019-05-15T18:06:08.039Z,10.13
2019-05-15T18:08:40.031Z,14.35
2019-05-15T18:11:08.116Z,5.80
2019-05-15T18:13:38.200Z,10.25
2019-05-15T18:16:12.460Z,11.15
2019-05-15T18:18:38.372Z,8.93
2019-05-15T18:21:08.793Z,7.87
2019-05-15T18:23:38.922Z,4.65
2019-05-15T18:26:09.077Z,9.58
2019-05-15T18:28:38.757Z,5.08
2019-05-15T18:31:08.936Z,7.60
2019-05-15T18:33:46.467Z,6.83
2019-05-15T18:36:09.184Z,6.28
2019-05-15T18:38:38.878Z,6.97
2019-05-15T18:41:09.058Z,9.45
2019-05-15T18:43:38.309Z,6.75
2019-05-15T18:46:09.014Z,7.03
2019-05-15T18:48:39.315Z,10.85
2019-05-15T18:51:08.454Z,14.47
2019-05-15T18:53:38.865Z,7.95
2019-05-15T18:56:08.944Z,9.10
2019-05-15T18:58:39.745Z,8.08
2019-05-15T19:01:09.656Z,10.45
2019-05-15T19:03:38.659Z,9.00
2019-05-15T19:06:09.680Z,11.20
2019-05-15T19:08:38.841Z,8.48
2019-05-15T19:11:08.300Z,7.85
2019-05-15T19:13:38.937Z,8.95
2019-05-15T19:16:08.209Z,13.20
2019-05-15T19:18:38.498Z,13.68
2019-05-15T19:21:08.008Z,12.05
2019-05-15T19:23:38.123Z,7.90
2019-05-15T19:26:11.768Z,6.97
2019-05-15T19:28:42.553Z,8.73
2019-05-15T19:31:26.017Z,16.60
2019-05-15T19:33:51.530Z,6.28
2019-05-15T19:36:20.343Z,10.60
2019-05-15T19:38:50.873Z,9.35
2019-05-15T19:41:20.206Z,10.38
2019-05-15T19:43:49.656Z,7.25
2019-05-15T19:46:20.001Z,7.92
2019-05-15T19:48:50.070Z,7.30
2019-05-15T19:51:19.212Z,7.97
2019-05-15T19:53:49.053Z,12.35
2019-05-15T19:56:22.929Z,10.78
2019-05-15T19:58:57.801Z,11.40
2019-05-15T20:01:30.059Z,9.60
2019-05-15T20:04:00.089Z,14.43
2019-05-15T20:06:30.149Z,7.40
2019-05-15T20:09:02.484Z,6.67
2019-05-15T20:11:33.902Z,22.87
2019-05-15T20:14:07.287Z,95.53
2019-05-15T20:16:42.743Z,16.65
2019-05-15T20:19:18.166Z,12.50
2019-05-15T20:21:51.570Z,12.18
2019-05-15T20:24:23.064Z,10.70
2019-05-15T20:26:59.715Z,27.53
2019-05-15T20:29:29.766Z,15.85
2019-05-15T20:32:01.836Z,11.93
2019-05-15T20:37:02.572Z,7.62
2019-05-15T20:39:33.893Z,11.12
2019-05-15T20:42:05.920Z,10.57
2019-05-15T20:44:37.956Z,10.28
2019-05-15T20:49:40.928Z,8.13
2019-05-15T20:52:14.098Z,6.47
2019-05-15T20:54:47.898Z,10.08
2019-05-15T20:57:17.930Z,11.25
2019-05-15T20:59:50.799Z,6.85
2019-05-15T21:02:23.337Z,11.55
2019-05-15T21:04:53.823Z,16.77
2019-05-15T21:07:35.765Z,8.10
2019-05-15T21:09:58.637Z,11.53
2019-05-15T21:12:31.115Z,14.95
2019-05-15T21:15:04.847Z,10.68
2019-05-15T21:17:39.556Z,14.40
2019-05-15T21:20:09.667Z,11.38
2019-05-15T21:22:41.994Z,11.63
2019-05-15T21:27:48.762Z,13.38
2019-05-15T21:30:21.542Z,10.23
2019-05-15T21:32:54.760Z,10.78
2019-05-15T21:35:27.725Z,8.38
2019-05-15T21:38:02.339Z,8.33
2019-05-15T21:40:34.357Z,14.73
2019-05-15T21:43:08.818Z,9.88
2019-05-15T21:45:41.722Z,10.98
2019-05-15T21:48:14.773Z,6.35
2019-05-15T21:50:48.324Z,10.53
2019-05-15T21:53:21.811Z,10.80
2019-05-15T21:55:55.726Z,9.58
2019-05-15T21:58:29.533Z,11.60
2019-05-15T22:01:04.673Z,10.23
2019-05-15T22:03:35.488Z,8.28
2019-05-15T22:06:04.666Z,8.68
2019-05-15T22:08:33.431Z,10.78
2019-05-15T22:11:02.355Z,6.78
2019-05-15T22:13:31.594Z,8.20
2019-05-15T22:16:00.641Z,8.73
2019-05-15T22:18:29.601Z,9.90
2019-05-15T22:20:58.659Z,10.30
2019-05-15T22:23:27.936Z,8.65
2019-05-15T22:25:58.461Z,8.95
2019-05-15T22:28:28.228Z,9.80
2019-05-15T22:30:58.371Z,8.93
2019-05-15T22:33:28.392Z,10.55
2019-05-15T22:35:59.274Z,7.53
2019-05-15T22:38:28.493Z,11.35
2019-05-15T22:40:57.633Z,9.78
2019-05-15T22:43:28.658Z,8.40
2019-05-15T22:45:58.787Z,15.20
2019-05-15T22:48:28.742Z,11.83
2019-05-15T22:50:58.316Z,9.63
2019-05-15T22:53:28.907Z,12.33
2019-05-15T22:55:58.837Z,10.40
2019-05-15T22:58:28.172Z,7.47
2019-05-15T23:00:59.763Z,13.35
2019-05-15T23:03:28.222Z,11.80
2019-05-15T23:05:58.113Z,6.35
2019-05-15T23:08:29.098Z,5.10
2019-05-15T23:10:58.708Z,9.60
2019-05-15T23:13:28.571Z,9.05
2019-05-15T23:15:58.468Z,10.18
2019-05-15T23:18:27.759Z,7.47
2019-05-15T23:20:56.574Z,11.20
2019-05-15T23:23:25.465Z,5.70
2019-05-15T23:25:54.256Z,5.10
2019-05-15T23:28:23.128Z,11.75
2019-05-15T23:30:51.819Z,6.60
2019-05-15T23:33:20.603Z,7.50
2019-05-15T23:35:49.410Z,6.37
2019-05-15T23:38:18.177Z,8.30
2019-05-15T23:40:48.340Z,4.78
2019-05-15T23:43:18.917Z,8.93
2019-05-15T23:45:48.426Z,4.60
2019-05-15T23:48:17.436Z,16.62
2019-05-15T23:50:48.443Z,6.28
2019-05-15T23:53:19.644Z,10.23
2019-05-15T23:55:47.383Z,8.30
2019-05-15T23:58:18.905Z,4.85
